createdAt,value
2019-05-26T00:01:22.956Z,60.23
2019-05-26T00:03:51.607Z,60.00
2019-05-26T00:06:20.269Z,60.39
2019-05-26T00:08:49.304Z,60.89
2019-05-26T00:11:18.270Z,62.06
2019-05-26T00:13:47.044Z,63.88
2019-05-26T00:16:15.763Z,65.22
2019-05-26T00:18:44.357Z,65.05
2019-05-26T00:21:13.366Z,65.56
2019-05-26T00:23:42.046Z,65.15
2019-05-26T00:26:10.713Z,65.57
2019-05-26T00:28:39.324Z,66.25
2019-05-26T00:31:08.093Z,66.87
2019-05-26T00:33:36.730Z,65.82
2019-05-26T00:36:05.509Z,66.51
2019-05-26T00:38:34.237Z,63.99
2019-05-26T00:41:02.899Z,65.29
2019-05-26T00:43:31.598Z,62.56
2019-05-26T00:46:00.322Z,62.31
2019-05-26T00:48:29.156Z,62.69
2019-05-26T00:50:57.859Z,63.40
2019-05-26T00:53:26.588Z,63.32
2019-05-26T00:55:55.240Z,63.08
2019-05-26T00:58:23.996Z,63.94
2019-05-26T01:00:52.896Z,63.37
2019-05-26T01:03:21.618Z,63.06
2019-05-26T01:05:50.333Z,62.42
2019-05-26T01:08:19.041Z,61.76
2019-05-26T01:10:47.766Z,61.82
2019-05-26T01:13:16.525Z,61.11
2019-05-26T01:15:45.237Z,60.44
2019-05-26T01:18:13.883Z,60.51
2019-05-26T01:20:42.709Z,62.18
2019-05-26T01:23:11.422Z,62.88
2019-05-26T01:25:40.090Z,63.60
2019-05-26T01:28:08.799Z,65.42
2019-05-26T01:30:39.094Z,66.71
2019-05-26T01:33:08.070Z,65.58
2019-05-26T01:35:39.973Z,66.74
2019-05-26T01:38:22.504Z,65.10
2019-05-26T01:40:41.726Z,64.88
2019-05-26T01:43:10.408Z,65.51
2019-05-26T01:45:39.070Z,65.78
2019-05-26T01:48:08.374Z,65.74
2019-05-26T01:50:37.561Z,65.65
2019-05-26T01:53:07.716Z,65.57
2019-05-26T01:55:36.351Z,66.14
2019-05-26T01:58:05.313Z,66.17
2019-05-26T02:00:34.146Z,66.08
2019-05-26T02:03:03.435Z,66.23
2019-05-26T02:05:32.133Z,66.43
2019-05-26T02:08:01.021Z,66.53
2019-05-26T02:10:29.676Z,66.49
2019-05-26T02:12:58.337Z,66.49
2019-05-26T02:15:27.412Z,66.37
2019-05-26T02:17:56.136Z,66.52
2019-05-26T02:20:24.799Z,66.29
2019-05-26T02:22:53.704Z,65.17
2019-05-26T02:25:22.556Z,63.60
2019-05-26T02:27:51.206Z,62.75
2019-05-26T02:30:20.408Z,63.39
2019-05-26T02:32:49.125Z,63.99
2019-05-26T02:35:17.892Z,64.00
2019-05-26T02:37:46.539Z,65.26
2019-05-26T02:40:17.239Z,64.49
2019-05-26T02:42:45.975Z,63.75
2019-05-26T02:45:19.466Z,62.98
2019-05-26T02:47:48.216Z,63.88
2019-05-26T02:50:17.908Z,64.28
2019-05-26T02:52:46.631Z,63.30
2019-05-26T02:55:15.766Z,63.17
2019-05-26T02:57:44.470Z,63.82
2019-05-26T03:00:14.588Z,64.10
2019-05-26T03:02:44.471Z,63.91
2019-05-26T03:05:14.814Z,63.77
2019-05-26T03:07:46.372Z,63.20
2019-05-26T03:10:15.807Z,63.87
2019-05-26T03:12:46.186Z,63.63
2019-05-26T03:15:16.322Z,64.14
2019-05-26T03:17:46.381Z,63.97
2019-05-26T03:20:15.548Z,61.48
2019-05-26T03:22:45.802Z,63.80
2019-05-26T03:25:14.492Z,63.72
2019-05-26T03:27:43.134Z,63.29
2019-05-26T03:30:11.972Z,62.57
2019-05-26T03:32:40.656Z,62.58
2019-05-26T03:35:10.632Z,62.29
2019-05-26T03:37:39.267Z,62.89
2019-05-26T03:40:09.045Z,62.47
2019-05-26T03:42:37.866Z,63.00
2019-05-26T03:45:08.210Z,63.00
2019-05-26T03:47:36.901Z,62.88
2019-05-26T03:50:07.972Z,63.31
2019-05-26T03:52:36.673Z,63.77
2019-05-26T03:55:07.616Z,64.18
2019-05-26T03:57:36.488Z,63.68
2019-05-26T04:00:08.927Z,63.64
2019-05-26T04:02:37.644Z,63.88
2019-05-26T04:05:07.065Z,62.87
2019-05-26T04:07:35.777Z,62.47
2019-05-26T04:10:06.868Z,62.31
2019-05-26T04:12:35.479Z,61.70
2019-05-26T04:15:07.405Z,62.12
2019-05-26T04:17:36.096Z,61.90
2019-05-26T04:20:06.315Z,60.31
2019-05-26T04:22:34.978Z,56.53
2019-05-26T04:25:05.641Z,53.99
2019-05-26T04:27:34.299Z,51.19
2019-05-26T04:30:02.941Z,51.02
2019-05-26T04:32:31.692Z,50.51
2019-05-26T04:35:00.371Z,49.19
2019-05-26T04:37:29.045Z,46.66
2019-05-26T04:39:57.802Z,47.18
2019-05-26T04:42:26.518Z,47.74
2019-05-26T04:44:55.213Z,48.82
2019-05-26T04:47:23.924Z,48.45
2019-05-26T04:49:52.853Z,49.30
2019-05-26T04:52:21.557Z,49.74
2019-05-26T04:54:50.283Z,49.72
2019-05-26T04:57:19.017Z,48.07
2019-05-26T04:59:47.665Z,48.96
2019-05-26T05:02:16.404Z,49.44
2019-05-26T05:04:45.061Z,48.25
2019-05-26T05:07:13.718Z,48.25
2019-05-26T05:09:42.464Z,47.25
2019-05-26T05:12:11.348Z,47.25
2019-05-26T05:14:40.066Z,47.71
2019-05-26T05:17:08.813Z,47.53
2019-05-26T05:19:37.372Z,46.96
2019-05-26T05:22:06.353Z,48.00
2019-05-26T05:24:35.008Z,48.72
2019-05-26T05:27:03.761Z,48.27
2019-05-26T05:29:32.468Z,48.08
2019-05-26T05:32:01.102Z,48.65
2019-05-26T05:34:29.785Z,48.04
2019-05-26T05:36:58.485Z,47.97
2019-05-26T05:39:31.572Z,48.63
2019-05-26T05:42:01.502Z,47.11
2019-05-26T05:44:40.866Z,47.62
2019-05-26T05:47:00.850Z,48.20
2019-05-26T05:49:29.508Z,48.99
2019-05-26T05:51:58.191Z,47.27
2019-05-26T05:54:26.773Z,47.67
2019-05-26T05:56:55.901Z,48.09
2019-05-26T05:59:24.738Z,47.52
2019-05-26T06:01:54.953Z,45.93
2019-05-26T06:04:23.587Z,47.47
2019-05-26T06:06:52.268Z,45.67
2019-05-26T06:09:20.908Z,46.67
2019-05-26T06:11:54.297Z,45.34
2019-05-26T06:14:20.086Z,45.08
2019-05-26T06:16:48.708Z,44.45
2019-05-26T06:19:17.466Z,43.72
2019-05-26T06:21:46.371Z,43.96
2019-05-26T06:24:15.033Z,47.48
2019-05-26T06:26:43.685Z,47.68
2019-05-26T06:29:12.441Z,44.21
2019-05-26T06:31:41.087Z,44.67
2019-05-26T06:34:09.798Z,44.96
2019-05-26T06:36:38.571Z,44.29
2019-05-26T06:39:08.131Z,43.83
2019-05-26T06:41:36.774Z,43.90
2019-05-26T06:44:05.604Z,44.52
2019-05-26T06:46:34.243Z,45.15
2019-05-26T06:49:02.897Z,43.89
2019-05-26T06:51:31.665Z,43.14
2019-05-26T06:54:00.404Z,43.63
2019-05-26T06:56:29.127Z,42.63
2019-05-26T06:58:57.906Z,43.52
2019-05-26T07:01:26.482Z,43.19
2019-05-26T07:03:55.196Z,42.99
2019-05-26T07:06:23.916Z,41.37
2019-05-26T07:08:52.568Z,40.93
2019-05-26T07:11:21.295Z,40.61
2019-05-26T07:13:49.924Z,41.46
2019-05-26T07:16:18.677Z,41.01
2019-05-26T07:18:47.582Z,41.21
2019-05-26T07:21:16.321Z,42.25
2019-05-26T07:23:44.988Z,40.99
2019-05-26T07:26:13.627Z,40.43
2019-05-26T07:28:42.361Z,42.00
2019-05-26T07:31:12.592Z,41.66
2019-05-26T07:33:41.241Z,40.61
2019-05-26T07:36:09.890Z,41.31
2019-05-26T07:38:38.650Z,40.86
2019-05-26T07:41:07.382Z,40.62
2019-05-26T07:43:36.028Z,41.59
2019-05-26T07:46:04.784Z,40.61
2019-05-26T07:48:36.088Z,40.87
2019-05-26T07:51:03.889Z,39.81
2019-05-26T07:53:32.757Z,39.62
2019-05-26T07:56:01.505Z,40.63
2019-05-26T07:58:30.168Z,39.88
2019-05-26T08:00:58.936Z,40.12
2019-05-26T08:03:27.674Z,38.94
2019-05-26T08:05:57.950Z,39.21
2019-05-26T08:08:26.641Z,40.00
2019-05-26T08:10:55.290Z,39.99
2019-05-26T08:13:24.010Z,38.68
2019-05-26T08:15:52.800Z,40.07
2019-05-26T08:18:21.438Z,39.59
2019-05-26T08:20:50.110Z,39.84
2019-05-26T08:23:18.908Z,40.01
2019-05-26T08:25:47.685Z,39.34
2019-05-26T08:28:16.450Z,37.81
2019-05-26T08:30:45.231Z,38.27
2019-05-26T08:33:13.858Z,39.41
2019-05-26T08:35:44.018Z,39.07
2019-05-26T08:38:12.642Z,38.05
2019-05-26T08:40:41.304Z,38.27
2019-05-26T08:43:10.025Z,38.40
2019-05-26T08:45:38.704Z,38.08
2019-05-26T08:48:07.355Z,38.61
2019-05-26T08:50:36.090Z,35.19
2019-05-26T08:53:04.856Z,37.58
2019-05-26T08:55:34.486Z,35.56
2019-05-26T08:58:03.137Z,34.97
2019-05-26T09:00:31.869Z,35.50
2019-05-26T09:03:00.591Z,35.42
2019-05-26T09:05:29.308Z,34.63
2019-05-26T09:07:57.985Z,34.94
2019-05-26T09:10:26.719Z,34.02
2019-05-26T09:13:01.362Z,33.45
2019-05-26T09:15:25.792Z,34.35
2019-05-26T09:17:54.510Z,33.61
2019-05-26T09:20:23.239Z,32.60
2019-05-26T09:22:51.971Z,33.25
2019-05-26T09:25:20.920Z,32.35
2019-05-26T09:27:49.585Z,31.91
2019-05-26T09:30:18.666Z,33.13
2019-05-26T09:32:47.298Z,34.78
2019-05-26T09:35:16.865Z,32.71
2019-05-26T09:37:45.554Z,34.09
2019-05-26T09:40:14.472Z,33.80
2019-05-26T09:42:43.104Z,33.44
2019-05-26T09:45:13.343Z,34.32
2019-05-26T09:47:42.073Z,34.27
2019-05-26T09:50:11.121Z,33.42
2019-05-26T09:52:39.838Z,33.97
2019-05-26T09:55:09.055Z,31.99
2019-05-26T09:57:38.720Z,30.54
2019-05-26T10:00:16.342Z,31.23
2019-05-26T10:02:45.898Z,31.01
2019-05-26T10:05:15.773Z,29.61
2019-05-26T10:07:47.267Z,30.62
2019-05-26T10:10:16.823Z,29.54
2019-05-26T10:12:46.845Z,29.95
2019-05-26T10:15:16.806Z,27.87
2019-05-26T10:17:45.444Z,27.87
2019-05-26T10:20:14.437Z,26.71
2019-05-26T10:22:43.165Z,26.05
2019-05-26T10:25:12.083Z,26.34
2019-05-26T10:27:40.695Z,27.11
2019-05-26T10:30:14.685Z,26.67
2019-05-26T10:32:43.335Z,25.64
2019-05-26T10:35:12.762Z,25.37
2019-05-26T10:37:41.533Z,25.60
2019-05-26T10:40:11.943Z,25.55
2019-05-26T10:42:40.614Z,27.20
2019-05-26T10:45:09.744Z,28.05
2019-05-26T10:47:38.489Z,27.89
2019-05-26T10:50:07.740Z,27.21
2019-05-26T10:52:36.416Z,26.42
2019-05-26T10:55:08.121Z,27.37
2019-05-26T10:57:36.846Z,28.07
2019-05-26T11:00:10.479Z,27.36
2019-05-26T11:02:39.143Z,27.73
2019-05-26T11:05:09.097Z,27.97
2019-05-26T11:07:37.796Z,28.91
2019-05-26T11:10:09.593Z,27.91
2019-05-26T11:12:38.304Z,28.97
2019-05-26T11:15:08.380Z,27.74
2019-05-26T11:17:36.971Z,28.92
2019-05-26T11:20:11.319Z,28.58
2019-05-26T11:22:40.101Z,29.21
2019-05-26T11:25:09.527Z,28.58
2019-05-26T11:27:38.178Z,28.95
2019-05-26T11:30:09.631Z,29.71
2019-05-26T11:32:43.387Z,29.09
2019-05-26T11:35:13.603Z,28.80
2019-05-26T11:37:42.311Z,28.94
2019-05-26T11:40:11.168Z,29.94
2019-05-26T11:42:39.816Z,30.85
2019-05-26T11:45:09.175Z,28.85
2019-05-26T11:47:37.823Z,29.13
2019-05-26T11:50:07.970Z,29.57
2019-05-26T11:52:36.713Z,28.99
2019-05-26T11:55:09.303Z,29.74
2019-05-26T11:57:38.046Z,29.30
2019-05-26T12:00:10.046Z,30.09
2019-05-26T12:02:39.345Z,29.64
2019-05-26T12:05:09.629Z,30.61
2019-05-26T12:07:38.465Z,29.04
2019-05-26T12:10:14.169Z,29.54
2019-05-26T12:12:42.866Z,29.91
2019-05-26T12:15:13.387Z,30.00
2019-05-26T12:17:42.083Z,29.81
2019-05-26T12:20:11.043Z,30.15
2019-05-26T12:22:39.680Z,30.04
2019-05-26T12:25:09.114Z,29.76
2019-05-26T12:27:39.331Z,29.55
2019-05-26T12:30:09.551Z,29.63
2019-05-26T12:32:38.251Z,29.96
2019-05-26T12:35:08.488Z,29.51
2019-05-26T12:37:37.173Z,29.62
2019-05-26T12:40:07.613Z,30.07
2019-05-26T12:42:36.353Z,29.10
2019-05-26T12:45:09.410Z,30.08
2019-05-26T12:47:38.064Z,30.03
2019-05-26T12:50:08.819Z,30.57
2019-05-26T12:52:37.812Z,29.80
2019-05-26T12:55:09.444Z,30.39
2019-05-26T12:57:37.708Z,31.20
2019-05-26T13:00:08.371Z,31.15
2019-05-26T13:02:37.100Z,30.24
2019-05-26T13:05:07.329Z,30.85
2019-05-26T13:07:36.200Z,31.01
2019-05-26T13:10:06.799Z,31.64
2019-05-26T13:12:35.468Z,31.77
2019-05-26T13:15:09.453Z,32.45
2019-05-26T13:17:38.161Z,32.69
2019-05-26T13:20:08.330Z,32.13
2019-05-26T13:22:37.458Z,31.10
2019-05-26T13:25:07.943Z,31.40
2019-05-26T13:27:36.705Z,31.50
2019-05-26T13:30:10.307Z,31.49
2019-05-26T13:32:38.965Z,31.70
2019-05-26T13:35:11.428Z,31.95
2019-05-26T13:37:40.084Z,31.61
2019-05-26T13:40:09.409Z,32.18
2019-05-26T13:42:38.068Z,31.60
2019-05-26T13:45:21.703Z,31.67
2019-05-26T13:47:39.976Z,31.92
2019-05-26T13:50:10.233Z,31.80
2019-05-26T13:52:39.219Z,31.09
2019-05-26T13:55:10.563Z,30.97
2019-05-26T13:57:39.451Z,30.83
2019-05-26T14:00:10.920Z,30.59
2019-05-26T14:02:40.050Z,31.23
2019-05-26T14:05:09.284Z,31.04
2019-05-26T14:07:37.978Z,31.38
2019-05-26T14:10:08.792Z,31.25
2019-05-26T14:12:37.481Z,31.43
2019-05-26T14:15:10.936Z,31.51
2019-05-26T14:17:40.700Z,30.77
2019-05-26T14:20:11.303Z,31.62
2019-05-26T14:22:39.955Z,31.80
2019-05-26T14:25:09.131Z,31.83
2019-05-26T14:27:37.857Z,32.45
2019-05-26T14:30:07.399Z,32.49
2019-05-26T14:32:37.294Z,32.34
2019-05-26T14:35:15.058Z,32.54
2019-05-26T14:37:43.683Z,32.90
2019-05-26T14:40:12.851Z,32.32
2019-05-26T14:42:41.511Z,32.52
2019-05-26T14:45:10.564Z,32.55
2019-05-26T14:47:39.298Z,32.20
2019-05-26T14:50:09.071Z,32.77
2019-05-26T14:52:37.795Z,32.27
2019-05-26T14:55:07.172Z,32.17
2019-05-26T14:57:35.812Z,31.90
2019-05-26T15:00:06.801Z,32.13
2019-05-26T15:02:35.527Z,32.23
2019-05-26T15:05:05.237Z,32.26
2019-05-26T15:07:33.947Z,32.26
2019-05-26T15:10:02.591Z,32.42
2019-05-26T15:12:31.279Z,32.50
2019-05-26T15:15:00.033Z,32.50
2019-05-26T15:17:28.742Z,32.60
2019-05-26T15:19:57.497Z,32.97
2019-05-26T15:22:26.206Z,32.61
2019-05-26T15:24:54.848Z,32.84
2019-05-26T15:27:23.573Z,32.77
2019-05-26T15:29:52.361Z,32.97
2019-05-26T15:32:20.949Z,33.29
2019-05-26T15:34:49.605Z,33.28
2019-05-26T15:37:18.362Z,33.29
2019-05-26T15:39:47.069Z,33.41
2019-05-26T15:42:15.665Z,33.17
2019-05-26T15:44:44.293Z,33.21
2019-05-26T15:47:13.011Z,33.33
2019-05-26T15:49:41.660Z,33.20
2019-05-26T15:52:10.344Z,33.37
2019-05-26T15:54:39.055Z,33.07
2019-05-26T15:57:07.700Z,33.19
2019-05-26T15:59:36.545Z,32.99
2019-05-26T16:02:05.576Z,33.71
2019-05-26T16:04:34.299Z,33.55
2019-05-26T16:07:03.011Z,33.77
2019-05-26T16:09:31.573Z,34.39
2019-05-26T16:12:00.462Z,34.33
2019-05-26T16:14:29.222Z,34.41
2019-05-26T16:16:57.878Z,34.09
2019-05-26T16:19:26.543Z,33.91
2019-05-26T16:21:55.304Z,33.78
2019-05-26T16:24:23.955Z,34.09
2019-05-26T16:26:52.615Z,34.16
2019-05-26T16:29:21.377Z,34.75
2019-05-26T16:31:50.098Z,35.29
2019-05-26T16:34:18.847Z,35.18
2019-05-26T16:36:47.542Z,35.31
2019-05-26T16:39:16.268Z,35.53
2019-05-26T16:41:44.934Z,35.91
2019-05-26T16:44:13.654Z,35.31
2019-05-26T16:46:55.472Z,35.06
2019-05-26T16:49:12.762Z,35.34
2019-05-26T16:51:41.548Z,35.05
2019-05-26T16:54:10.273Z,35.45
2019-05-26T16:56:38.911Z,35.14
2019-05-26T16:59:07.748Z,35.12
2019-05-26T17:01:36.627Z,35.40
2019-05-26T17:04:05.277Z,35.36
2019-05-26T17:06:33.953Z,35.66
2019-05-26T17:09:02.630Z,35.84
2019-05-26T17:11:31.449Z,35.59
2019-05-26T17:14:00.096Z,35.90
2019-05-26T17:16:28.806Z,36.48
2019-05-26T17:18:57.453Z,36.85
2019-05-26T17:21:26.199Z,37.29
2019-05-26T17:23:54.970Z,37.35
2019-05-26T17:26:23.808Z,37.54
2019-05-26T17:28:52.570Z,37.39
2019-05-26T17:31:21.276Z,37.17
2019-05-26T17:33:49.999Z,37.22
2019-05-26T17:36:18.670Z,37.20
2019-05-26T17:38:47.351Z,37.28
2019-05-26T17:41:16.354Z,36.90
2019-05-26T17:43:45.180Z,37.40
2019-05-26T17:46:15.221Z,37.37
2019-05-26T17:48:44.156Z,37.44
2019-05-26T17:51:12.932Z,37.60
2019-05-26T17:53:41.555Z,37.62
2019-05-26T17:56:10.325Z,37.75
2019-05-26T17:58:38.961Z,37.91
2019-05-26T18:01:07.704Z,37.82
2019-05-26T18:03:36.422Z,39.88
2019-05-26T18:06:05.232Z,38.28
2019-05-26T18:08:36.241Z,38.54
2019-05-26T18:11:04.428Z,39.21
2019-05-26T18:13:33.209Z,40.62
2019-05-26T18:16:01.948Z,39.29
2019-05-26T18:18:30.755Z,39.19
2019-05-26T18:20:59.378Z,39.46
2019-05-26T18:23:28.066Z,40.62
2019-05-26T18:25:56.776Z,39.04
2019-05-26T18:28:25.500Z,38.85
2019-05-26T18:30:54.251Z,38.91
2019-05-26T18:33:23.064Z,38.64
2019-05-26T18:35:51.703Z,38.85
2019-05-26T18:38:20.438Z,38.90
2019-05-26T18:40:49.241Z,41.01
2019-05-26T18:43:17.924Z,41.07
2019-05-26T18:45:46.736Z,42.31
2019-05-26T18:48:15.417Z,42.69
2019-05-26T18:50:44.318Z,43.12
2019-05-26T18:53:13.280Z,42.77
2019-05-26T18:55:41.943Z,42.94
2019-05-26T18:58:10.674Z,42.61
2019-05-26T19:00:39.465Z,42.86
2019-05-26T19:03:08.138Z,43.03
2019-05-26T19:05:38.534Z,43.66
2019-05-26T19:08:07.375Z,43.80
2019-05-26T19:10:36.055Z,44.08
2019-05-26T19:13:04.815Z,43.87
2019-05-26T19:15:33.518Z,44.11
2019-05-26T19:18:16.716Z,44.30
2019-05-26T19:20:32.680Z,44.31
2019-05-26T19:23:01.586Z,44.22
2019-05-26T19:25:30.335Z,43.83
2019-05-26T19:27:58.902Z,44.32
2019-05-26T19:30:27.653Z,43.97
2019-05-26T19:32:56.410Z,44.10
2019-05-26T19:35:25.129Z,44.02
2019-05-26T19:37:53.805Z,44.36
2019-05-26T19:40:22.571Z,44.83
2019-05-26T19:42:51.478Z,44.96
2019-05-26T19:45:20.202Z,45.10
2019-05-26T19:47:48.881Z,45.42
2019-05-26T19:50:17.602Z,45.33
2019-05-26T19:52:49.717Z,45.32
2019-05-26T19:55:16.868Z,45.11
2019-05-26T19:57:48.493Z,45.17
2019-05-26T20:00:18.491Z,45.14
2019-05-26T20:02:47.271Z,45.12
2019-05-26T20:05:16.206Z,44.87
2019-05-26T20:07:44.849Z,44.77
2019-05-26T20:10:13.952Z,44.72
2019-05-26T20:12:42.656Z,44.90
2019-05-26T20:15:11.962Z,44.75
2019-05-26T20:17:40.738Z,44.66
2019-05-26T20:20:10.499Z,45.09
2019-05-26T20:22:39.250Z,45.44
2019-05-26T20:25:09.272Z,45.85
2019-05-26T20:27:37.940Z,46.22
2019-05-26T20:30:08.570Z,46.12
2019-05-26T20:32:37.357Z,46.61
2019-05-26T20:35:07.577Z,46.89
2019-05-26T20:37:36.249Z,47.56
2019-05-26T20:40:09.186Z,47.39
2019-05-26T20:42:38.079Z,47.71
2019-05-26T20:45:10.128Z,47.62
2019-05-26T20:47:38.834Z,47.46
2019-05-26T20:50:08.452Z,47.69
2019-05-26T20:52:37.460Z,47.56
2019-05-26T20:55:07.071Z,47.33
2019-05-26T20:57:35.712Z,47.66
2019-05-26T21:00:07.509Z,48.38
2019-05-26T21:02:36.379Z,48.43
2019-05-26T21:05:08.955Z,48.34
2019-05-26T21:07:37.626Z,48.25
2019-05-26T21:10:07.077Z,48.20
2019-05-26T21:12:35.959Z,48.55
2019-05-26T21:15:05.596Z,48.69
2019-05-26T21:17:34.362Z,48.87
2019-05-26T21:20:03.400Z,48.60
2019-05-26T21:22:32.129Z,48.47
2019-05-26T21:25:00.911Z,48.46
2019-05-26T21:27:34.538Z,48.03
2019-05-26T21:30:04.191Z,47.79
2019-05-26T21:32:32.888Z,47.90
2019-05-26T21:35:01.629Z,47.90
2019-05-26T21:37:30.343Z,48.33
2019-05-26T21:39:58.945Z,48.60
2019-05-26T21:42:27.725Z,48.54
2019-05-26T21:44:56.437Z,48.56
2019-05-26T21:47:25.127Z,48.39
2019-05-26T21:49:53.855Z,48.16
2019-05-26T21:52:22.837Z,48.81
2019-05-26T21:54:51.526Z,49.23
2019-05-26T21:57:20.190Z,49.67
2019-05-26T21:59:48.910Z,50.16
2019-05-26T22:02:18.169Z,50.01
2019-05-26T22:04:46.817Z,50.23
2019-05-26T22:07:15.482Z,50.24
2019-05-26T22:09:44.135Z,50.45
2019-05-26T22:12:12.858Z,51.04
2019-05-26T22:14:41.459Z,51.66
2019-05-26T22:17:10.106Z,51.34
2019-05-26T22:19:38.803Z,51.63
2019-05-26T22:22:07.458Z,51.68
2019-05-26T22:24:36.229Z,51.73
2019-05-26T22:27:05.056Z,51.86
2019-05-26T22:29:33.619Z,51.62
2019-05-26T22:32:02.287Z,52.44
2019-05-26T22:34:31.044Z,52.28
2019-05-26T22:36:59.747Z,51.57
2019-05-26T22:39:28.539Z,50.95
2019-05-26T22:41:57.366Z,49.91
2019-05-26T22:44:26.210Z,50.05
2019-05-26T22:46:54.944Z,50.94
2019-05-26T22:49:23.818Z,50.36
2019-05-26T22:51:52.707Z,51.44
2019-05-26T22:54:21.543Z,51.74
2019-05-26T22:56:50.273Z,53.14
2019-05-26T22:59:18.848Z,53.23
2019-05-26T23:01:47.800Z,52.98
2019-05-26T23:04:16.441Z,53.78
2019-05-26T23:06:45.078Z,53.85
2019-05-26T23:09:13.941Z,54.18
2019-05-26T23:11:42.664Z,54.42
2019-05-26T23:14:11.307Z,54.14
2019-05-26T23:16:39.999Z,54.01
2019-05-26T23:19:18.924Z,54.42
2019-05-26T23:21:39.155Z,53.73
2019-05-26T23:24:07.851Z,52.97
2019-05-26T23:26:36.485Z,52.74
2019-05-26T23:29:05.381Z,52.51
2019-05-26T23:31:34.096Z,52.28
2019-05-26T23:34:02.739Z,52.50
2019-05-26T23:36:31.384Z,52.33
2019-05-26T23:39:00.064Z,52.46
2019-05-26T23:41:28.846Z,52.22
2019-05-26T23:43:57.405Z,52.39
2019-05-26T23:46:27.710Z,52.45
2019-05-26T23:48:56.280Z,52.55
2019-05-26T23:51:25.320Z,52.57
2019-05-26T23:53:54.044Z,53.32
2019-05-26T23:56:23.026Z,53.28
2019-05-26T23:58:51.490Z,53.20
